Time;durP1;ratioP1;P1;durP2;ratioP2;P2;SDS_P1;SDS_P2;PMS_P1;PMS_P2;Temp;Humidity;BMP_temperature;BMP_pressure;BME280_temperature;BME280_humidity;BME280_pressure;Samples;Min_cycle;Max_cycle;Signal;HPM_P1;HPM_P2
2023/05/01 00:07:29;;;;;;;;;;;;;;;;;;;;;
2023/05/01 00:25:16;;;;;;;;;;;;;;;;;;;;;
2023/05/01 00:27:54;;;;;;;5.53;3.37;;;;;;;15.21;71.21;98900.66;4591448;31;20385;-95
2023/05/01 00:30:55;;;;;;;5.97;3.30;;;;;;;14.91;71.83;98902.13;4605188;31;20198;-96
2023/05/01 00:33:39;;;;;;;4.60;2.77;;;;;;;14.81;72.47;98904.56;4623763;30;20275;-95
2023/05/01 00:36:15;;;;;;;;;;;;;;;;;;;;;
2023/05/01 00:38:42;;;;;;;6.97;3.27;;;;;;;14.38;74.19;98917.41;4649925;30;20592;-95
2023/05/01 00:41:23;;;;;;;6.57;3.67;;;;;;;14.13;75.43;98922.69;4720002;30;20236;-95
2023/05/01 00:43:50;;;;;;;6.53;4.20;;;;;;;14.14;75.53;98927.84;4717499;30;20212;-95
2023/05/01 00:46:17;;;;;;;6.13;3.63;;;;;;;14.09;75.58;98926.50;4703035;30;20201;-93
2023/05/01 00:49:15;;;;;;;;;;;;;;;;;;;;;
2023/05/01 00:51:48;;;;;;;5.93;3.70;;;;;;;14.04;75.92;98932.09;4856838;29;20671;-94
2023/05/01 00:54:38;;;;;;;5.23;3.23;;;;;;;14.04;76.00;98928.63;4865422;29;20547;-96
2023/05/01 00:57:07;;;;;;;9.43;3.70;;;;;;;14.06;76.19;98935.47;4880701;29;20522;-95
2023/05/01 01:00:07;;;;;;;;;;;;;;;;;;;;;
2023/05/01 01:02:37;;;;;;;6.30;4.27;;;;;;;13.97;76.20;98941.34;4880970;29;20188;-95
2023/05/01 01:09:07;;;;;;;5.83;3.87;;;;;;;13.85;77.22;98915.88;4801616;29;20235;-94
2023/05/01 01:11:50;;;;;;;7.93;4.17;;;;;;;13.84;78.91;98915.97;4806073;29;20188;-94
2023/05/01 01:14:51;;;;;;;7.30;4.33;;;;;;;13.84;79.64;98935.25;4790517;29;20283;-96
2023/05/01 01:17:47;;;;;;;;;;;;;;;;;;;;;
2023/05/01 01:20:30;;;;;;;8.20;4.20;;;;;;;14.09;78.86;98935.25;4806309;29;20179;-95
2023/05/01 01:23:24;;;;;;;6.73;4.07;;;;;;;14.33;77.59;98923.94;4790631;29;20755;-95
2023/05/01 01:26:06;;;;;;;7.67;4.20;;;;;;;14.32;77.84;98927.53;4784116;29;20433;-94
2023/05/01 01:29:04;;;;;;;5.80;3.63;;;;;;;14.39;77.60;98926.13;4824387;29;20208;-95
2023/05/01 01:31:47;;;;;;;6.47;3.50;;;;;;;14.58;77.45;98926.50;4828080;29;20180;-96
2023/05/01 01:34:44;;;;;;;6.27;3.70;;;;;;;14.66;76.91;98926.81;4836245;29;20195;-94
2023/05/01 01:37:28;;;;;;;9.07;4.63;;;;;;;14.61;76.56;98927.13;4846063;29;20215;-95
2023/05/01 01:40:04;;;;;;;7.03;4.40;;;;;;;14.52;76.64;98926.94;4840227;29;20325;-93
2023/05/01 01:43:01;;;;;;;7.73;4.33;;;;;;;14.49;77.13;98937.75;4858476;29;20183;-94
2023/05/01 01:46:07;;;;;;;10.33;5.13;;;;;;;14.52;77.30;98926.94;4866539;29;20705;-95
2023/05/01 01:49:28;;;;;;;9.50;5.33;;;;;;;14.49;77.25;98928.00;4846042;29;20187;-95
2023/05/01 02:21:27;;;;;;;;;;;;;;;;;;;;;
2023/05/01 02:35:00;;;;;;;;;;;;;;;;;;;;;
2023/05/01 02:37:28;;;;;;;;;;;;;;;;;;;;;
2023/05/01 02:40:37;;;;;;;7.67;4.20;;;;;;;15.37;72.70;98956.66;4719601;30;20179;-95
2023/05/01 02:43:43;;;;;;;;;;;;;;;;;;;;;
2023/05/01 02:46:31;;;;;;;7.53;4.50;;;;;;;15.20;73.75;98964.13;4790862;30;20171;-95
2023/05/01 02:49:20;;;;;;;7.60;4.40;;;;;;;15.15;73.63;98964.47;4773326;30;20206;-94
2023/05/01 02:51:53;;;;;;;7.87;4.47;;;;;;;15.01;73.92;98972.59;4809866;29;20193;-95
2023/05/01 02:54:23;;;;;;;8.13;4.50;;;;;;;14.97;74.53;98962.34;4811783;29;20178;-95
2023/05/01 02:56:58;;;;;;;5.80;3.77;;;;;;;15.02;74.68;98968.13;4811634;29;20193;-96
2023/05/01 02:59:25;;;;;;;8.33;4.33;;;;;;;15.04;74.39;98972.34;4811529;29;20181;-94
2023/05/01 03:01:52;;;;;;;11.20;4.97;;;;;;;15.09;74.51;98975.50;4811324;29;20663;-94
2023/05/01 03:04:19;;;;;;;7.37;4.77;;;;;;;15.02;74.02;98979.53;4826538;29;20540;-96
2023/05/01 03:06:46;;;;;;;9.63;4.83;;;;;;;14.87;74.29;98979.81;4832602;29;20190;-95
2023/05/01 03:12:09;;;;;;;6.83;3.60;;;;;;;14.95;73.08;98980.94;4835715;29;20182;-96
2023/05/01 03:39:13;;;;;;;;;;;;;;;;;;;;;
2023/05/01 03:56:16;;;;;;;;;;;;;;;;;;;;;
2023/05/01 03:59:01;;;;;;;7.17;4.10;;;;;;;15.15;70.30;99013.78;4666497;30;20633;-95
2023/05/01 04:02:07;;;;;;;5.73;3.77;;;;;;;15.02;70.65;99008.56;4680720;30;20325;-95
2023/05/01 04:04:55;;;;;;;;;;;;;;;;;;;;;
2023/05/01 04:08:24;;;;;;;;;;;;;;;;;;;;;
2023/05/01 04:11:16;;;;;;;8.13;3.90;;;;;;;15.08;71.06;99025.75;4717839;30;20244;-96
2023/05/01 04:18:13;;;;;;;7.33;3.87;;;;;;;15.20;72.26;99020.44;4707737;30;20248;-96
2023/05/01 04:21:20;;;;;;;8.70;4.40;;;;;;;15.42;71.79;99024.97;4779292;30;20216;-96
2023/05/01 04:24:19;;;;;;;8.20;4.30;;;;;;;15.58;71.36;99033.50;4759903;30;20231;-96
2023/05/01 04:27:11;;;;;;;9.07;4.93;;;;;;;15.88;72.04;99028.53;4772040;29;20184;-96
2023/05/01 04:30:07;;;;;;;;;;;;;;;;;;;;;
2023/05/01 04:37:36;;;;;;;;;;;;;;;;;;;;;
2023/05/01 04:47:06;;;;;;;;;;;;;;;;;;;;;
2023/05/01 04:49:34;;;;;;;8.27;3.83;;;;;;;19.42;61.80;99051.94;4749837;30;20214;-96
2023/05/01 04:52:09;;;;;;;7.60;4.47;;;;;;;19.82;60.89;99054.47;4794460;30;20198;-95
2023/05/01 04:54:47;;;;;;;7.80;4.43;;;;;;;20.53;59.89;99060.25;4791132;30;20285;-94
2023/05/01 04:57:46;;;;;;;9.00;4.43;;;;;;;21.44;56.00;99047.75;4796645;29;20289;-95
2023/05/01 05:04:23;;;;;;;;;;;;;;;;;;;;;
2023/05/01 05:07:53;;;;;;;9.80;4.80;;;;;;;24.13;47.27;99060.59;4767953;30;20694;-96
2023/05/01 05:10:49;;;;;;;;;;;;;;;;;;;;;
2023/05/01 05:16:49;;;;;;;7.63;3.80;;;;;;;25.94;41.96;99055.03;4735452;30;20208;-96
2023/05/01 05:19:35;;;;;;;7.13;4.20;;;;;;;26.29;39.99;99058.94;4762480;30;20212;-96
2023/05/01 05:22:20;;;;;;;8.33;3.40;;;;;;;26.11;40.83;99061.94;4802030;29;20231;-96
2023/05/01 05:25:02;;;;;;;6.30;3.37;;;;;;;26.11;41.62;99067.31;4794846;30;20285;-96
2023/05/01 05:27:37;;;;;;;4.60;2.80;;;;;;;26.11;39.70;99067.31;4783495;30;20207;-96
2023/05/01 05:30:36;;;;;;;7.10;2.80;;;;;;;25.84;41.86;99070.56;4789623;30;20219;-96
2023/05/01 05:33:25;;;;;;;6.20;2.60;;;;;;;25.95;40.91;99072.81;4788567;29;20213;-96
2023/05/01 05:35:51;;;;;;;4.50;2.60;;;;;;;25.73;40.78;99074.50;4859343;29;20201;-96
2023/05/01 05:38:23;;;;;;;4.53;2.23;;;;;;;25.73;40.23;99079.03;4848868;29;20212;-96
2023/05/01 05:40:49;;;;;;;4.33;2.40;;;;;;;25.76;40.01;99084.84;4828377;29;20213;-96
2023/05/01 05:43:34;;;;;;;;;;;;;;;;;;;;;
2023/05/01 05:46:04;;;;;;;5.47;2.13;;;;;;;25.46;40.59;99083.88;5034388;23;20687;-94
2023/05/01 05:48:30;;;;;;;3.57;1.83;;;;;;;24.94;40.89;99088.09;4871933;29;20192;-95
2023/05/01 05:50:56;;;;;;;4.77;2.10;;;;;;;25.11;41.33;99089.69;4840479;29;20272;-94
2023/05/01 05:53:22;;;;;;;4.63;2.20;;;;;;;25.30;41.27;99088.44;4859449;29;20196;-96
2023/05/01 05:55:47;;;;;;;5.27;2.10;;;;;;;25.16;40.77;99094.56;4850053;29;20294;-94
2023/05/01 05:58:18;;;;;;;5.47;2.07;;;;;;;25.05;41.90;99099.28;4854269;29;20294;-95
2023/05/01 06:00:47;;;;;;;5.03;2.00;;;;;;;24.78;41.62;99098.84;4852789;29;20248;-96
2023/05/01 06:03:13;;;;;;;3.87;1.70;;;;;;;24.90;42.11;99103.69;4845054;29;20200;-94
2023/05/01 06:05:49;;;;;;;;;;;;;;;;;;;;;
2023/05/01 06:08:37;;;;;;;;;;;;;;;;;;;;;
2023/05/01 06:11:17;;;;;;;5.30;2.20;;;;;;;25.73;41.20;99106.72;4873202;29;20192;-94
2023/05/01 06:14:33;;;;;;;5.40;2.03;;;;;;;25.91;40.70;99109.94;4844045;29;20193;-96
2023/05/01 06:24:07;;;;;;;3.87;2.00;;;;;;;26.14;41.72;99112.66;4758864;30;20711;-96
2023/05/01 06:40:48;;;;;;;;;;;;;;;;;;;;;
2023/05/01 06:46:57;;;;;;;;;;;;;;;;;;;;;
2023/05/01 06:50:30;;;;;;;3.07;1.67;;;;;;;25.35;41.06;99142.44;4681191;30;20220;-94
2023/05/01 06:53:32;;;;;;;6.90;1.90;;;;;;;25.19;41.82;99146.00;4724586;29;20212;-95
2023/05/01 06:56:32;;;;;;;5.07;2.10;;;;;;;25.05;42.18;99155.59;4862560;29;20630;-93
2023/05/01 06:59:04;;;;;;;3.77;1.80;;;;;;;24.79;42.83;99148.81;4842879;29;20212;-95
2023/05/01 07:01:31;;;;;;;4.27;1.83;;;;;;;24.88;44.07;99148.63;4847667;29;20220;-94
2023/05/01 07:03:59;;;;;;;4.53;1.87;;;;;;;25.01;42.68;99154.28;4835646;29;20200;-94
2023/05/01 07:06:29;;;;;;;4.27;1.70;;;;;;;24.57;41.84;99155.66;4864020;29;20231;-94
2023/05/01 07:09:27;;;;;;;3.90;1.47;;;;;;;24.56;43.14;99158.50;4847625;29;20633;-94
2023/05/01 07:11:55;;;;;;;3.00;1.70;;;;;;;24.37;42.86;99157.03;4819402;29;20240;-95
2023/05/01 07:14:26;;;;;;;2.10;1.30;;;;;;;24.44;43.38;99160.69;4845974;29;20174;-92
2023/05/01 07:16:54;;;;;;;3.90;1.93;;;;;;;24.46;43.41;99161.38;4847402;29;20190;-92
2023/05/01 07:19:22;;;;;;;2.77;1.57;;;;;;;24.82;46.85;99165.38;4851309;29;20551;-92
2023/05/01 07:21:48;;;;;;;3.17;1.37;;;;;;;25.03;38.75;99164.84;4832519;29;20201;-93
2023/05/01 07:24:15;;;;;;;2.93;1.20;;;;;;;25.16;40.96;99169.69;4846337;29;20280;-93
2023/05/01 07:26:42;;;;;;;3.10;1.20;;;;;;;25.20;39.78;99179.88;4847229;29;20189;-91
2023/05/01 07:29:08;;;;;;;4.27;1.40;;;;;;;25.34;40.91;99170.28;4863574;29;20184;-90
2023/05/01 07:31:57;;;;;;;2.73;1.20;;;;;;;25.31;39.51;99176.00;4863670;29;20200;-95
2023/05/01 07:34:24;;;;;;;2.10;1.10;;;;;;;25.26;37.81;99173.81;4847525;29;20275;-93
2023/05/01 07:36:50;;;;;;;2.30;1.20;;;;;;;25.40;38.63;99181.16;4848082;29;20631;-93
2023/05/01 07:39:17;;;;;;;4.23;1.47;;;;;;;25.49;37.71;99173.94;4847338;29;20192;-93
2023/05/01 07:41:43;;;;;;;2.43;1.10;;;;;;;25.63;39.88;99189.31;4847115;29;20231;-92
2023/05/01 07:44:09;;;;;;;2.50;1.30;;;;;;;25.79;40.92;99177.66;4841612;29;20231;-92
2023/05/01 07:46:36;;;;;;;3.33;1.60;;;;;;;25.80;38.28;99174.81;4846590;29;20327;-93
2023/05/01 07:49:03;;;;;;;4.13;1.77;;;;;;;25.78;39.09;99174.16;4847108;29;20216;-93
2023/05/01 07:51:32;;;;;;;3.43;1.17;;;;;;;25.76;40.17;99180.72;4847331;29;20627;-93
2023/05/01 07:54:03;;;;;;;1.80;1.20;;;;;;;26.01;39.47;99177.69;4846803;29;20185;-92
2023/05/01 07:56:31;;;;;;;3.73;1.10;;;;;;;26.20;37.21;99171.88;4847575;29;20603;-93
2023/05/01 07:59:00;;;;;;;2.20;1.03;;;;;;;25.75;35.82;99185.25;4862672;29;20219;-94
2023/05/01 08:01:27;;;;;;;2.97;1.27;;;;;;;25.78;40.22;99184.88;4847967;29;20272;-91
2023/05/01 08:03:53;;;;;;;2.87;1.17;;;;;;;26.13;40.07;99191.56;4845902;29;20607;-93
2023/05/01 08:06:19;;;;;;;2.60;1.30;;;;;;;26.30;37.69;99190.47;4846856;29;20181;-93
2023/05/01 08:08:44;;;;;;;1.60;0.90;;;;;;;26.43;37.12;99190.69;4847016;29;20556;-93
2023/05/01 08:11:13;;;;;;;2.67;1.07;;;;;;;26.47;38.34;99186.63;4863031;29;20181;-93
2023/05/01 08:13:38;;;;;;;4.27;1.37;;;;;;;26.56;37.84;99187.41;4846667;29;20181;-92
2023/05/01 08:16:05;;;;;;;2.40;1.30;;;;;;;26.76;39.19;99191.25;4846408;29;20525;-92
2023/05/01 08:18:35;;;;;;;2.13;1.30;;;;;;;26.63;39.09;99185.66;4846433;29;20248;-92
2023/05/01 08:21:00;;;;;;;3.17;1.50;;;;;;;26.49;38.93;99197.22;4846199;29;20708;-93
2023/05/01 08:23:27;;;;;;;3.07;1.20;;;;;;;26.84;38.61;99193.91;4846376;29;20283;-93
2023/05/01 08:25:54;;;;;;;2.20;1.30;;;;;;;26.58;36.45;99193.44;4846542;29;20272;-93
2023/05/01 08:28:22;;;;;;;4.40;1.20;;;;;;;26.67;36.74;99198.56;4847217;29;20199;-93
2023/05/01 08:30:49;;;;;;;2.23;1.17;;;;;;;26.58;36.56;99193.44;4847458;29;20252;-93
2023/05/01 08:33:15;;;;;;;2.03;1.20;;;;;;;26.35;37.52;99196.13;4862907;29;20647;-92
2023/05/01 08:35:40;;;;;;;2.17;1.20;;;;;;;25.80;38.58;99201.66;4861464;29;20267;-91
2023/05/01 08:38:06;;;;;;;2.37;1.37;;;;;;;25.85;37.85;99201.97;4862367;29;20626;-91
2023/05/01 08:40:36;;;;;;;9.33;2.40;;;;;;;25.32;38.66;99199.97;4846034;29;20255;-92
2023/05/01 08:43:03;;;;;;;2.30;1.10;;;;;;;25.73;39.88;99198.00;4845997;29;20544;-92
2023/05/01 08:45:36;;;;;;;3.67;1.77;;;;;;;25.14;38.02;99203.88;4843856;29;20260;-92
2023/05/01 08:48:06;;;;;;;3.53;1.90;;;;;;;25.17;39.92;99209.75;4827524;29;20205;-93
2023/05/01 08:50:35;;;;;;;4.00;1.83;;;;;;;25.46;39.95;99204.66;4827549;29;20185;-92
2023/05/01 08:53:02;;;;;;;3.60;1.90;;;;;;;25.79;39.10;99205.34;4827560;29;20189;-91
2023/05/01 08:55:31;;;;;;;2.97;1.60;;;;;;;25.35;38.72;99201.47;4827544;29;20191;-93
2023/05/01 08:57:58;;;;;;;4.00;2.13;;;;;;;25.55;40.70;99206.28;4827511;29;20195;-92
2023/05/01 09:00:24;;;;;;;6.83;2.30;;;;;;;25.63;39.47;99208.09;4843254;29;20200;-91
2023/05/01 09:02:51;;;;;;;3.77;2.00;;;;;;;25.91;39.99;99200.44;4827224;29;20260;-92
2023/05/01 09:05:19;;;;;;;2.35;1.40;;;;;;;26.15;40.16;99195.75;4843481;29;20213;-91
2023/05/01 09:07:47;;;;;;;4.03;2.30;;;;;;;26.20;39.05;99185.31;4843184;29;20631;-92
2023/05/01 09:10:17;;;;;;;3.90;1.92;;;;;;;25.57;37.96;99192.72;4833188;29;20234;-92
2023/05/01 09:12:48;;;;;;;3.40;1.73;;;;;;;25.93;39.72;99195.72;4824162;29;20196;-92
2023/05/01 09:15:14;;;;;;;3.35;1.55;;;;;;;26.42;36.56;99183.66;4816142;29;20198;-93
2023/05/01 09:17:43;;;;;;;4.47;1.73;;;;;;;26.71;38.64;99186.44;4811454;29;20200;-91
2023/05/01 09:20:10;;;;;;;3.53;1.63;;;;;;;26.08;40.02;99192.09;4839202;29;20224;-91
2023/05/01 09:22:37;;;;;;;5.90;1.77;;;;;;;26.52;40.53;99169.97;4826819;29;20212;-92
2023/05/01 09:25:03;;;;;;;2.80;1.58;;;;;;;26.68;38.17;99183.25;4827240;29;20200;-91
2023/05/01 09:27:34;;;;;;;2.38;1.13;;;;;;;26.87;37.28;99179.25;4826966;29;20185;-92
2023/05/01 09:29:59;;;;;;;5.25;1.80;;;;;;;27.01;36.92;99176.59;4836617;29;20185;-91
2023/05/01 09:32:28;;;;;;;4.68;1.63;;;;;;;27.02;36.87;99172.88;4826408;29;20197;-92
2023/05/01 09:35:41;;;;;;;2.83;1.10;;;;;;;26.73;37.49;99175.47;4821603;29;20201;-92
2023/05/01 09:38:15;;;;;;;4.10;1.90;;;;;;;26.71;37.35;99177.50;4820469;29;20201;-94
2023/05/01 09:40:41;;;;;;;3.10;1.70;;;;;;;27.03;38.38;99176.41;4829844;29;20647;-93
2023/05/01 09:43:07;;;;;;;3.60;1.52;;;;;;;26.79;38.01;99172.09;4830170;29;20200;-92
2023/05/01 09:45:33;;;;;;;3.70;1.42;;;;;;;26.71;38.07;99172.13;4816736;29;20197;-90
2023/05/01 09:48:12;;;;;;;2.90;1.63;;;;;;;27.00;36.58;99180.28;4832563;29;20272;-93
2023/05/01 09:50:47;;;;;;;3.03;1.58;;;;;;;27.10;36.28;99175.47;4825749;29;20189;-94
2023/05/01 09:53:12;;;;;;;2.85;1.27;;;;;;;27.18;36.56;99177.22;4836722;29;20207;-91
2023/05/01 09:55:38;;;;;;;3.60;1.27;;;;;;;27.09;35.92;99178.34;4845809;29;20193;-91
2023/05/01 09:58:04;;;;;;;3.17;1.40;;;;;;;26.95;35.91;99168.41;4817619;29;20272;-92
2023/05/01 10:00:29;;;;;;;3.58;1.52;;;;;;;27.13;35.62;99169.72;4822303;29;20196;-90
2023/05/01 10:02:55;;;;;;;2.63;1.55;;;;;;;26.97;35.49;99175.28;4828361;29;20193;-92
2023/05/01 10:05:21;;;;;;;4.38;1.63;;;;;;;27.04;36.38;99172.69;4819126;29;20253;-91
2023/05/01 10:08:09;;;;;;;4.93;1.60;;;;;;;26.84;35.12;99167.84;4817681;29;20220;-92
2023/05/01 10:10:34;;;;;;;2.22;1.27;;;;;;;26.53;34.75;99166.25;4816378;29;20205;-91
2023/05/01 10:13:14;;;;;;;2.55;0.98;;;;;;;26.39;35.61;99169.75;4822425;29;20254;-93
2023/05/01 10:15:51;;;;;;;3.78;1.40;;;;;;;26.42;34.30;99166.66;4824957;29;20193;-92
2023/05/01 10:18:17;;;;;;;3.13;1.37;;;;;;;26.55;34.90;99167.75;4815818;29;20276;-91
2023/05/01 10:20:43;;;;;;;4.07;1.48;;;;;;;26.74;34.65;99166.41;4821849;29;20220;-92
2023/05/01 10:23:09;;;;;;;3.50;1.52;;;;;;;26.80;36.43;99166.56;4833579;29;20228;-93
2023/05/01 10:25:36;;;;;;;7.90;1.52;;;;;;;26.60;34.22;99157.28;4814558;29;20280;-91
2023/05/01 10:28:06;;;;;;;4.53;1.55;;;;;;;26.72;34.63;99168.44;4825477;29;20268;-90
2023/05/01 10:30:32;;;;;;;2.95;1.10;;;;;;;26.79;35.13;99162.19;4831916;29;20194;-91
2023/05/01 10:32:58;;;;;;;5.72;1.60;;;;;;;26.42;33.92;99163.97;4818463;29;20662;-91
2023/05/01 10:35:36;;;;;;;3.47;1.67;;;;;;;26.60;34.19;99164.50;4843657;29;20193;-91
2023/05/01 10:38:06;;;;;;;4.25;1.58;;;;;;;26.94;35.72;99164.06;4834552;29;20189;-90
2023/05/01 10:40:48;;;;;;;9.27;2.38;;;;;;;27.34;32.72;99161.75;4817322;29;20667;-91
2023/05/01 10:43:28;;;;;;;5.78;1.55;;;;;;;27.55;32.86;99161.00;4831209;29;20216;-90
2023/05/01 10:46:06;;;;;;;2.63;1.33;;;;;;;27.81;30.72;99158.63;4817192;29;20185;-92
2023/05/01 10:48:44;;;;;;;3.35;1.30;;;;;;;27.62;32.01;99150.34;4820983;29;20200;-91
2023/05/01 10:51:20;;;;;;;2.63;1.50;;;;;;;27.02;32.82;99162.09;4834274;29;20265;-89
2023/05/01 10:53:47;;;;;;;3.67;2.10;;;;;;;27.13;33.33;99166.19;4828592;29;20196;-90
2023/05/01 10:56:25;;;;;;;8.95;1.88;;;;;;;27.24;34.34;99160.34;4836856;29;20621;-90
2023/05/01 10:59:08;;;;;;;4.57;1.30;;;;;;;27.79;33.71;99165.25;4828936;29;20660;-90
2023/05/01 11:01:43;;;;;;;3.97;2.33;;;;;;;27.95;31.62;99156.94;4828643;29;20217;-91
2023/05/01 11:04:23;;;;;;;2.13;1.45;;;;;;;27.51;31.52;99180.44;4844949;29;20173;-91
2023/05/01 11:07:04;;;;;;;3.03;1.40;;;;;;;27.78;31.55;99166.25;4844919;29;20188;-90
2023/05/01 11:09:56;;;;;;;4.32;1.60;;;;;;;27.94;31.95;99174.94;4828609;29;20223;-91
2023/05/01 11:12:55;;;;;;;2.80;1.50;;;;;;;28.07;31.52;99171.59;4845016;29;20620;-91
2023/05/01 11:15:36;;;;;;;3.50;1.63;;;;;;;28.17;30.81;99172.13;4780727;29;20221;-91
2023/05/01 11:18:04;;;;;;;7.10;1.77;;;;;;;28.15;30.55;99178.72;4825732;29;20190;-90
2023/05/01 11:20:36;;;;;;;3.97;1.35;;;;;;;28.23;30.57;99179.44;4825943;29;20189;-91
2023/05/01 11:23:08;;;;;;;2.40;1.25;;;;;;;28.11;30.04;99178.28;4844282;29;20248;-91
2023/05/01 11:25:34;;;;;;;3.22;1.70;;;;;;;28.16;32.12;99175.84;4827612;29;20264;-91
2023/05/01 11:28:05;;;;;;;3.42;1.45;;;;;;;28.12;30.59;99174.53;4844451;29;20225;-93
2023/05/01 11:30:39;;;;;;;5.10;1.52;;;;;;;28.11;31.52;99177.44;4828468;29;20704;-92
2023/05/01 11:33:24;;;;;;;2.20;1.20;;;;;;;28.04;30.92;99164.72;4845190;29;20181;-93
2023/05/01 11:35:56;;;;;;;3.53;1.75;;;;;;;28.27;32.93;99163.72;4828760;29;20173;-90
2023/05/01 11:38:23;;;;;;;2.67;1.30;;;;;;;28.46;30.48;99161.19;4845104;29;20173;-91
2023/05/01 11:40:55;;;;;;;3.78;1.65;;;;;;;27.92;29.50;99162.69;4844519;29;20207;-92
2023/05/01 11:43:22;;;;;;;4.30;1.80;;;;;;;28.23;31.59;99154.34;4827041;29;20317;-91
2023/05/01 11:46:03;;;;;;;3.47;1.70;;;;;;;28.43;31.09;99158.88;4827387;29;20185;-90
2023/05/01 11:48:30;;;;;;;4.35;1.58;;;;;;;28.06;31.59;99155.63;4831759;29;20201;-91
2023/05/01 11:50:57;;;;;;;2.25;1.27;;;;;;;28.56;30.71;99161.69;4809068;29;20178;-90
2023/05/01 11:53:29;;;;;;;2.65;1.50;;;;;;;28.67;30.65;99157.66;4825509;29;20214;-92
2023/05/01 11:55:55;;;;;;;2.15;1.17;;;;;;;28.29;31.69;99161.66;4809818;29;20682;-91
2023/05/01 11:58:32;;;;;;;3.60;1.60;;;;;;;28.16;30.75;99156.97;4826537;29;20189;-91
2023/05/01 12:00:59;;;;;;;2.95;1.65;;;;;;;28.24;30.25;99148.78;4826329;29;20209;-93
2023/05/01 12:03:28;;;;;;;3.05;1.48;;;;;;;28.21;30.79;99141.06;4826608;29;20189;-92
2023/05/01 12:05:55;;;;;;;2.80;1.30;;;;;;;28.10;30.60;99138.88;4822614;29;20212;-94
2023/05/01 12:08:41;;;;;;;3.85;1.70;;;;;;;28.34;31.01;99141.19;4828347;29;20617;-92
2023/05/01 12:11:11;;;;;;;2.88;1.30;;;;;;;28.59;30.59;99149.69;4844601;29;20165;-93
2023/05/01 12:13:52;;;;;;;3.90;1.38;;;;;;;28.25;30.71;99139.63;4828437;29;20191;-93
2023/05/01 12:16:19;;;;;;;2.75;1.40;;;;;;;28.43;31.19;99140.00;4844206;29;20189;-91
2023/05/01 12:18:45;;;;;;;3.90;1.73;;;;;;;27.97;31.04;99150.31;4844896;29;20212;-92
2023/05/01 12:21:18;;;;;;;2.55;1.50;;;;;;;27.72;31.21;99153.56;4844044;29;20236;-91
2023/05/01 12:23:44;;;;;;;2.65;1.20;;;;;;;27.43;30.56;99139.13;4827945;29;20603;-92
2023/05/01 12:26:24;;;;;;;3.50;1.70;;;;;;;26.53;31.87;99147.44;4844142;29;20261;-93
2023/05/01 12:29:03;;;;;;;3.08;1.67;;;;;;;26.00;33.32;99138.41;4827902;29;20193;-92
2023/05/01 12:31:30;;;;;;;2.47;1.25;;;;;;;26.46;33.04;99141.13;4827753;29;20181;-93
2023/05/01 12:34:01;;;;;;;4.03;1.75;;;;;;;26.61;33.29;99140.13;4819889;29;20194;-92
2023/05/01 12:36:30;;;;;;;2.40;1.30;;;;;;;26.44;32.10;99140.47;4809662;29;20237;-93
2023/05/01 12:39:05;;;;;;;2.63;1.10;;;;;;;26.88;31.71;99133.34;4807799;29;20260;-93
2023/05/01 12:41:31;;;;;;;3.40;1.60;;;;;;;27.36;31.49;99134.63;4832388;29;20216;-93
2023/05/01 12:43:57;;;;;;;3.53;1.52;;;;;;;27.81;31.91;99128.16;4824864;29;20228;-92
2023/05/01 12:46:31;;;;;;;5.10;1.50;;;;;;;28.08;30.02;99130.16;4834479;29;20268;-94
2023/05/01 12:49:07;;;;;;;5.47;1.38;;;;;;;27.53;30.81;99129.91;4815191;29;20181;-93
2023/05/01 12:51:35;;;;;;;5.25;1.40;;;;;;;26.89;31.19;99139.56;4840459;29;20260;-93
2023/05/01 12:54:00;;;;;;;6.03;1.40;;;;;;;26.60;32.03;99151.06;4840349;29;20601;-92
2023/05/01 12:56:26;;;;;;;2.15;1.20;;;;;;;26.08;33.22;99142.88;4822625;29;20213;-92
2023/05/01 12:58:54;;;;;;;2.92;1.48;;;;;;;25.98;33.07;99147.66;4840954;29;20190;-92
2023/05/01 13:01:26;;;;;;;1.60;0.90;;;;;;;25.95;33.53;99148.84;4825986;29;20222;-93
2023/05/01 13:03:53;;;;;;;5.78;1.92;;;;;;;26.10;32.97;99136.31;4839596;29;20207;-93
2023/05/01 13:06:19;;;;;;;3.80;1.40;;;;;;;26.19;34.23;99140.66;4831550;29;20198;-92
2023/05/01 13:08:45;;;;;;;3.70;1.27;;;;;;;25.81;33.20;99146.09;4836370;29;20197;-92
2023/05/01 13:11:16;;;;;;;4.15;1.48;;;;;;;25.87;33.07;99146.22;4826975;29;20190;-92
2023/05/01 13:13:43;;;;;;;3.30;1.40;;;;;;;26.08;33.03;99138.34;4840973;29;20182;-92
2023/05/01 13:16:11;;;;;;;2.95;1.30;;;;;;;25.39;33.07;99138.41;4816550;29;20272;-92
2023/05/01 13:18:52;;;;;;;4.43;1.70;;;;;;;25.48;33.56;99135.53;4829434;29;20185;-92
2023/05/01 13:21:22;;;;;;;3.72;1.42;;;;;;;25.45;33.04;99135.00;4836016;29;20212;-93
2023/05/01 13:24:14;;;;;;;3.70;1.60;;;;;;;25.44;33.79;99136.88;4836955;29;20185;-92
2023/05/01 13:26:39;;;;;;;4.33;1.83;;;;;;;25.41;34.10;99136.38;4816610;29;20683;-92
2023/05/01 13:29:14;;;;;;;7.22;1.70;;;;;;;25.14;34.50;99140.34;4826736;29;20202;-93
2023/05/01 13:31:44;;;;;;;2.85;1.08;;;;;;;25.17;34.06;99142.66;4822469;29;20196;-94
2023/05/01 13:34:10;;;;;;;2.60;1.23;;;;;;;24.94;34.03;99137.22;4819252;29;20273;-93
2023/05/01 13:36:39;;;;;;;3.50;1.25;;;;;;;24.43;35.85;99143.78;4841645;29;20611;-94
2023/05/01 13:39:05;;;;;;;2.80;1.30;;;;;;;24.68;35.53;99136.56;4826363;29;20192;-94
2023/05/01 13:41:33;;;;;;;2.65;1.55;;;;;;;25.35;33.75;99135.22;4827404;29;20623;-92
2023/05/01 13:44:00;;;;;;;5.38;1.83;;;;;;;26.05;33.09;99124.44;4842596;29;20189;-92
2023/05/01 13:46:27;;;;;;;3.40;1.73;;;;;;;26.13;30.67;99135.16;4841423;29;20204;-93
2023/05/01 13:48:56;;;;;;;2.05;1.15;;;;;;;26.18;32.33;99133.59;4841837;29;20162;-92
2023/05/01 13:51:23;;;;;;;2.42;1.30;;;;;;;25.91;32.16;99142.19;4826943;29;20704;-93
2023/05/01 13:53:51;;;;;;;3.00;1.17;;;;;;;25.44;33.79;99149.44;4826977;29;20318;-93
2023/05/01 13:56:17;;;;;;;4.13;1.53;;;;;;;24.84;35.72;99152.63;4826815;29;20181;-93
2023/05/01 13:58:44;;;;;;;2.73;1.50;;;;;;;23.90;38.04;99161.28;4827256;29;20666;-92
2023/05/01 14:01:17;;;;;;;4.53;1.50;;;;;;;23.62;38.65;99168.72;4827046;29;20225;-92
2023/05/01 14:03:43;;;;;;;5.00;1.67;;;;;;;23.37;38.35;99175.84;4844843;29;20663;-92
2023/05/01 14:06:19;;;;;;;3.97;1.93;;;;;;;23.27;38.71;99167.88;4830453;29;20241;-92
2023/05/01 14:08:45;;;;;;;2.77;1.40;;;;;;;23.43;39.31;99175.19;4846836;29;20185;-92
2023/05/01 14:11:11;;;;;;;2.87;1.47;;;;;;;23.30;39.52;99174.75;4846531;29;20248;-92
2023/05/01 14:13:45;;;;;;;3.47;2.00;;;;;;;23.69;39.15;99175.09;4830363;29;20181;-92
2023/05/01 14:16:21;;;;;;;6.30;1.40;;;;;;;23.41;38.62;99179.84;4830393;29;20191;-92
2023/05/01 14:18:47;;;;;;;5.03;1.70;;;;;;;23.12;38.97;99182.84;4830274;29;20184;-93
2023/05/01 14:21:17;;;;;;;2.17;1.20;;;;;;;23.24;39.64;99180.75;4830374;29;20204;-93
2023/05/01 14:23:43;;;;;;;3.43;1.23;;;;;;;23.51;39.10;99185.06;4845813;29;20256;-93
2023/05/01 14:26:10;;;;;;;2.77;1.40;;;;;;;23.27;39.36;99188.44;4830349;29;20208;-93
2023/05/01 14:28:43;;;;;;;2.30;1.23;;;;;;;23.35;39.21;99183.13;4830106;29;20196;-93
2023/05/01 14:31:27;;;;;;;2.47;1.40;;;;;;;23.33;38.45;99185.13;4829995;29;20636;-93
2023/05/01 14:33:56;;;;;;;3.63;1.50;;;;;;;22.97;38.73;99188.94;4845404;29;20177;-93
2023/05/01 14:36:22;;;;;;;2.27;1.17;;;;;;;23.34;38.50;99185.97;4845144;29;20281;-93
2023/05/01 14:38:49;;;;;;;4.93;1.97;;;;;;;23.67;38.94;99194.00;4829866;29;20647;-93
2023/05/01 14:41:18;;;;;;;6.87;2.30;;;;;;;23.53;38.54;99186.59;4845122;29;20217;-93
2023/05/01 14:43:44;;;;;;;4.50;1.87;;;;;;;23.55;38.57;99198.00;4829836;29;20192;-93
2023/05/01 14:46:14;;;;;;;5.67;2.03;;;;;;;23.52;37.87;99200.97;4845919;29;20185;-93
2023/05/01 14:48:41;;;;;;;3.67;1.30;;;;;;;23.71;37.45;99194.53;4846248;29;20638;-93
2023/05/01 14:51:13;;;;;;;2.00;1.00;;;;;;;23.75;35.58;99199.41;4830313;29;20306;-92
2023/05/01 14:53:42;;;;;;;2.97;1.03;;;;;;;23.35;36.17;99196.50;4845751;29;20260;-92
2023/05/01 14:56:08;;;;;;;16.17;1.63;;;;;;;23.57;36.12;99192.47;4829458;29;20185;-94
2023/05/01 14:58:34;;;;;;;2.60;1.00;;;;;;;23.64;36.09;99202.34;4844922;29;20205;-91
2023/05/01 15:01:00;;;;;;;3.13;1.33;;;;;;;24.07;35.21;99184.41;4829528;29;20213;-92
2023/05/01 15:03:26;;;;;;;2.70;1.17;;;;;;;24.32;36.05;99188.81;4844761;29;20196;-91
2023/05/01 15:05:52;;;;;;;3.27;1.63;;;;;;;24.18;35.33;99189.50;4845618;29;20185;-93
2023/05/01 15:08:17;;;;;;;2.30;1.23;;;;;;;24.05;36.01;99192.63;4829283;29;20177;-93
2023/05/01 15:10:43;;;;;;;4.30;1.60;;;;;;;23.97;36.48;99189.91;4844723;29;20264;-92
2023/05/01 15:13:09;;;;;;;6.67;2.93;;;;;;;24.17;35.80;99194.00;4844270;29;20528;-92
2023/05/01 15:15:35;;;;;;;4.63;1.43;;;;;;;23.98;35.36;99196.94;4826002;29;20899;-91